CDT,Max TemperatureF,Mean TemperatureF,Min TemperatureF,Max Dew PointF,MeanDew PointF,Min DewpointF,Max Humidity, Mean Humidity, Min Humidity, Max Sea Level PressureIn, Mean Sea Level PressureIn, Min Sea Level PressureIn, Max VisibilityMiles, Mean VisibilityMiles, Min VisibilityMiles, Max Wind SpeedMPH, Mean Wind SpeedMPH, Max Gust SpeedMPH,PrecipitationIn, CloudCover, Events, WindDirDegrees
2013-10-1,90,73,57,66,61,51,100,73,42,29.92,29.87,29.81,10,8,0,15,8,22,0.00,1,Fog,147
2013-10-2,89,78,69,70,68,66,97,76,53,29.97,29.89,29.81,10,9,5,17,10,23,0.00,3,,154
2013-10-3,91,81,71,70,67,65,87,68,44,29.84,29.77,29.68,10,10,10,20,14,30,0.00,2,,169
2013-10-4,91,76,62,69,65,61,94,72,46,29.98,29.80,29.72,10,9,0,21,14,30,0.76,3,Fog-Rain-Thunderstorm,177
2013-10-5,66,56,46,63,43,35,100,67,32,30.12,30.03,29.91,10,9,2,17,11,32,0.33,4,Rain-Thunderstorm,326
2013-10-6,71,58,44,42,37,28,90,55,20,30.09,30.05,30.01,10,10,10,17,8,25,0.00,0,,299
2013-10-7,78,57,39,46,40,34,93,62,22,30.19,30.12,30.07,10,10,10,7,2,,0.00,0,,298
2013-10-8,79,61,43,50,46,41,93,61,32,30.11,30.04,29.97,10,10,10,14,6,21,0.00,0,,144
2013-10-9,82,68,53,55,52,49,86,63,35,30.04,29.99,29.94,10,10,10,15,9,22,0.00,0,,150
2013-10-10,84,70,57,60,56,53,87,64,45,30.01,29.92,29.81,10,10,10,18,11,26,0.00,0,,153
2013-10-11,87,75,63,66,61,55,90,66,37,29.82,29.78,29.73,10,10,10,18,13,26,0.00,1,,177
2013-10-12,75,64,54,65,48,43,93,58,35,30.16,30.03,29.82,10,10,8,18,10,25,0.00,1,,36
2013-10-13,70,62,55,59,53,46,78,69,56,30.27,30.21,30.16,10,10,9,10,7,,0.00,7,Rain,71
2013-10-14,68,63,60,66,61,58,100,89,75,30.15,30.01,29.86,10,7,1,15,10,23,0.46,7,Rain,134
2013-10-15,69,60,50,67,52,42,96,80,51,30.12,30.00,29.85,10,9,2,16,11,25,0.08,4,Rain-Thunderstorm,339
2013-10-16,57,49,41,45,41,38,97,78,53,30.18,30.13,30.08,10,10,8,9,6,,0.03,3,Rain,332
2013-10-17,69,52,37,46,42,36,97,76,39,30.08,30.03,29.96,10,9,5,8,3,16,0.00,0,,249
2013-10-18,50,42,34,45,40,33,96,89,77,30.21,30.10,30.02,10,9,2,16,9,23,0.18,6,Rain,6
2013-10-19,68,48,30,41,36,29,97,70,30,30.18,30.09,29.99,10,10,9,12,5,17,0.01,0,,238
2013-10-20,73,56,39,46,41,36,89,61,32,29.98,29.90,29.80,10,10,10,17,7,29,0.00,1,,178
2013-10-21,62,50,37,44,39,35,93,67,38,30.13,30.06,29.91,10,10,5,15,6,22,0.00,1,,32
2013-10-22,75,54,37,44,40,35,89,65,34,30.10,30.05,30.00,10,10,6,14,4,18,0.00,2,,289
2013-10-23,72,55,39,49,42,37,93,69,36,30.17,30.09,29.99,10,10,10,15,6,,0.00,0,,81
2013-10-24,61,52,41,45,36,31,93,63,36,30.41,30.28,30.09,10,10,10,16,8,23,0.00,0,,37
2013-10-25,60,46,34,40,35,30,85,65,40,30.46,30.36,30.20,10,10,10,14,8,17,0.00,2,,118
2013-10-26,72,59,48,56,49,40,93,74,59,30.17,30.13,30.08,10,10,9,10,7,,0.03,5,Rain,187
2013-10-27,71,51,33,41,34,27,92,59,21,30.14,30.06,29.96,10,10,10,9,5,,0.00,0,,78
2013-10-28,70,58,46,60,55,43,100,85,60,30.10,30.02,29.98,10,7,0,18,9,25,0.00,7,Fog-Thunderstorm,156
2013-10-29,80,72,64,66,64,60,94,80,61,29.99,29.94,29.89,10,9,6,22,14,31,0.04,6,Rain-Thunderstorm,177
2013-10-30,72,69,66,68,66,63,94,88,81,29.92,29.82,29.70,10,10,7,22,12,26,0.12,8,Rain-Thunderstorm,169
2013-10-31,68,57,46,63,54,39,100,86,37,29.80,29.64,29.55,10,8,0,21,8,29,0.16,5,Fog-Rain,285